sensor_id;sensor_type;location;lat;lon;timestamp;P1;durP1;ratioP1;P2;durP2;ratioP2
50900;SDS011;36879;51.416;6.678;2022-11-20T00:00:54;40.83;;;20.17;;
50900;SDS011;36879;51.416;6.678;2022-11-20T00:03:20;38.28;;;19.27;;
50900;SDS011;36879;51.416;6.678;2022-11-20T00:05:46;33.70;;;18.67;;
50900;SDS011;36879;51.416;6.678;2022-11-20T00:08:12;32.22;;;17.73;;
50900;SDS011;36879;51.416;6.678;2022-11-20T00:10:38;34.65;;;19.42;;
50900;SDS011;36879;51.416;6.678;2022-11-20T00:13:05;29.02;;;18.65;;
50900;SDS011;36879;51.416;6.678;2022-11-20T00:15:31;33.80;;;18.38;;
50900;SDS011;36879;51.416;6.678;2022-11-20T00:17:57;30.42;;;17.40;;
50900;SDS011;36879;51.416;6.678;2022-11-20T00:20:23;34.88;;;20.70;;
50900;SDS011;36879;51.416;6.678;2022-11-20T00:22:49;38.00;;;19.10;;
50900;SDS011;36879;51.416;6.678;2022-11-20T00:25:15;29.77;;;16.77;;
50900;SDS011;36879;51.416;6.678;2022-11-20T00:27:41;34.45;;;17.77;;
50900;SDS011;36879;51.416;6.678;2022-11-20T00:30:07;36.92;;;17.70;;
50900;SDS011;36879;51.416;6.678;2022-11-20T00:32:34;37.38;;;18.02;;
50900;SDS011;36879;51.416;6.678;2022-11-20T00:35:00;33.58;;;17.88;;
50900;SDS011;36879;51.416;6.678;2022-11-20T00:37:26;32.30;;;18.52;;
50900;SDS011;36879;51.416;6.678;2022-11-20T00:39:52;32.45;;;18.30;;
50900;SDS011;36879;51.416;6.678;2022-11-20T00:42:18;28.88;;;18.33;;
50900;SDS011;36879;51.416;6.678;2022-11-20T00:44:44;31.58;;;16.90;;
50900;SDS011;36879;51.416;6.678;2022-11-20T00:47:10;34.40;;;19.50;;
50900;SDS011;36879;51.416;6.678;2022-11-20T00:49:36;30.77;;;18.45;;
50900;SDS011;36879;51.416;6.678;2022-11-20T00:52:02;35.80;;;18.02;;
50900;SDS011;36879;51.416;6.678;2022-11-20T00:54:28;38.78;;;19.65;;
50900;SDS011;36879;51.416;6.678;2022-11-20T00:56:54;38.42;;;21.50;;
50900;SDS011;36879;51.416;6.678;2022-11-20T00:59:20;37.22;;;21.45;;
50900;SDS011;36879;51.416;6.678;2022-11-20T01:01:46;37.83;;;20.85;;
50900;SDS011;36879;51.416;6.678;2022-11-20T01:04:12;45.15;;;24.58;;
50900;SDS011;36879;51.416;6.678;2022-11-20T01:06:38;36.10;;;22.25;;
50900;SDS011;36879;51.416;6.678;2022-11-20T01:09:05;42.90;;;23.58;;
50900;SDS011;36879;51.416;6.678;2022-11-20T01:11:33;39.90;;;24.13;;
50900;SDS011;36879;51.416;6.678;2022-11-20T01:14:00;42.08;;;25.25;;
50900;SDS011;36879;51.416;6.678;2022-11-20T01:16:27;45.40;;;22.65;;
50900;SDS011;36879;51.416;6.678;2022-11-20T01:18:54;44.58;;;23.45;;
50900;SDS011;36879;51.416;6.678;2022-11-20T01:21:22;43.67;;;22.92;;
50900;SDS011;36879;51.416;6.678;2022-11-20T01:23:49;48.00;;;25.70;;
50900;SDS011;36879;51.416;6.678;2022-11-20T01:26:17;44.15;;;22.42;;
50900;SDS011;36879;51.416;6.678;2022-11-20T01:28:44;43.72;;;22.42;;
50900;SDS011;36879;51.416;6.678;2022-11-20T01:31:11;46.53;;;25.67;;
50900;SDS011;36879;51.416;6.678;2022-11-20T01:33:38;40.15;;;23.45;;
50900;SDS011;36879;51.416;6.678;2022-11-20T01:36:05;49.08;;;25.05;;
50900;SDS011;36879;51.416;6.678;2022-11-20T01:38:31;48.42;;;25.17;;
50900;SDS011;36879;51.416;6.678;2022-11-20T01:40:57;45.90;;;25.25;;
50900;SDS011;36879;51.416;6.678;2022-11-20T01:43:23;41.10;;;23.70;;
50900;SDS011;36879;51.416;6.678;2022-11-20T01:48:19;47.17;;;25.80;;
50900;SDS011;36879;51.416;6.678;2022-11-20T01:50:45;49.50;;;26.02;;
50900;SDS011;36879;51.416;6.678;2022-11-20T01:53:13;48.75;;;25.17;;
50900;SDS011;36879;51.416;6.678;2022-11-20T01:55:40;49.47;;;27.15;;
50900;SDS011;36879;51.416;6.678;2022-11-20T01:58:07;45.25;;;25.80;;
50900;SDS011;36879;51.416;6.678;2022-11-20T02:00:34;47.97;;;26.35;;
50900;SDS011;36879;51.416;6.678;2022-11-20T02:03:02;44.92;;;26.35;;
50900;SDS011;36879;51.416;6.678;2022-11-20T02:07:55;44.30;;;25.33;;
50900;SDS011;36879;51.416;6.678;2022-11-20T02:10:22;46.22;;;25.23;;
50900;SDS011;36879;51.416;6.678;2022-11-20T02:12:49;42.08;;;24.67;;
50900;SDS011;36879;51.416;6.678;2022-11-20T02:15:34;44.45;;;24.55;;
50900;SDS011;36879;51.416;6.678;2022-11-20T02:18:00;41.33;;;22.55;;
50900;SDS011;36879;51.416;6.678;2022-11-20T02:20:26;43.58;;;24.95;;
50900;SDS011;36879;51.416;6.678;2022-11-20T02:22:56;41.90;;;23.55;;
50900;SDS011;36879;51.416;6.678;2022-11-20T02:25:24;39.70;;;24.67;;
50900;SDS011;36879;51.416;6.678;2022-11-20T02:27:51;43.35;;;24.70;;
50900;SDS011;36879;51.416;6.678;2022-11-20T02:30:18;40.85;;;24.65;;
50900;SDS011;36879;51.416;6.678;2022-11-20T02:32:44;44.20;;;25.30;;
50900;SDS011;36879;51.416;6.678;2022-11-20T02:35:39;40.83;;;23.63;;
50900;SDS011;36879;51.416;6.678;2022-11-20T02:37:57;41.70;;;23.83;;
50900;SDS011;36879;51.416;6.678;2022-11-20T02:40:23;38.28;;;22.67;;
50900;SDS011;36879;51.416;6.678;2022-11-20T02:42:53;46.95;;;23.10;;
50900;SDS011;36879;51.416;6.678;2022-11-20T02:45:19;40.58;;;22.17;;
50900;SDS011;36879;51.416;6.678;2022-11-20T02:47:45;36.95;;;21.95;;
50900;SDS011;36879;51.416;6.678;2022-11-20T02:50:11;44.28;;;23.67;;
50900;SDS011;36879;51.416;6.678;2022-11-20T02:52:37;38.33;;;21.65;;
50900;SDS011;36879;51.416;6.678;2022-11-20T02:55:04;35.03;;;20.63;;
50900;SDS011;36879;51.416;6.678;2022-11-20T02:57:30;44.22;;;22.30;;
50900;SDS011;36879;51.416;6.678;2022-11-20T02:59:56;44.78;;;24.42;;
50900;SDS011;36879;51.416;6.678;2022-11-20T03:02:22;40.20;;;24.48;;
50900;SDS011;36879;51.416;6.678;2022-11-20T03:04:48;36.55;;;22.70;;
50900;SDS011;36879;51.416;6.678;2022-11-20T03:07:14;45.33;;;23.77;;
50900;SDS011;36879;51.416;6.678;2022-11-20T03:09:40;37.78;;;22.63;;
50900;SDS011;36879;51.416;6.678;2022-11-20T03:12:06;37.88;;;23.60;;
50900;SDS011;36879;51.416;6.678;2022-11-20T03:14:32;44.95;;;24.35;;
50900;SDS011;36879;51.416;6.678;2022-11-20T03:16:58;40.92;;;25.17;;
50900;SDS011;36879;51.416;6.678;2022-11-20T03:19:24;37.63;;;22.17;;
50900;SDS011;36879;51.416;6.678;2022-11-20T03:21:50;44.13;;;25.10;;
50900;SDS011;36879;51.416;6.678;2022-11-20T03:24:16;43.72;;;24.00;;
50900;SDS011;36879;51.416;6.678;2022-11-20T03:26:42;42.63;;;24.75;;
50900;SDS011;36879;51.416;6.678;2022-11-20T03:29:08;40.38;;;24.35;;
50900;SDS011;36879;51.416;6.678;2022-11-20T03:31:35;43.22;;;24.55;;
50900;SDS011;36879;51.416;6.678;2022-11-20T03:34:02;44.88;;;27.20;;
50900;SDS011;36879;51.416;6.678;2022-11-20T03:36:28;44.83;;;25.73;;
50900;SDS011;36879;51.416;6.678;2022-11-20T03:38:55;48.45;;;28.02;;
50900;SDS011;36879;51.416;6.678;2022-11-20T03:41:22;44.58;;;25.55;;
50900;SDS011;36879;51.416;6.678;2022-11-20T03:43:49;45.88;;;25.55;;
50900;SDS011;36879;51.416;6.678;2022-11-20T03:46:16;48.22;;;26.27;;
50900;SDS011;36879;51.416;6.678;2022-11-20T03:48:42;49.33;;;25.88;;
50900;SDS011;36879;51.416;6.678;2022-11-20T03:53:37;42.13;;;25.45;;
50900;SDS011;36879;51.416;6.678;2022-11-20T03:56:04;41.95;;;27.08;;
50900;SDS011;36879;51.416;6.678;2022-11-20T03:58:30;43.28;;;26.45;;
50900;SDS011;36879;51.416;6.678;2022-11-20T04:00:56;42.72;;;25.55;;
50900;SDS011;36879;51.416;6.678;2022-11-20T04:03:22;44.65;;;27.77;;
50900;SDS011;36879;51.416;6.678;2022-11-20T04:05:48;46.80;;;27.38;;
50900;SDS011;36879;51.416;6.678;2022-11-20T04:08:13;45.63;;;26.52;;
50900;SDS011;36879;51.416;6.678;2022-11-20T04:10:39;41.15;;;26.30;;
50900;SDS011;36879;51.416;6.678;2022-11-20T04:13:05;45.42;;;26.27;;
50900;SDS011;36879;51.416;6.678;2022-11-20T04:15:31;44.20;;;27.27;;
50900;SDS011;36879;51.416;6.678;2022-11-20T04:17:57;45.33;;;26.90;;
50900;SDS011;36879;51.416;6.678;2022-11-20T04:20:23;42.15;;;26.40;;
50900;SDS011;36879;51.416;6.678;2022-11-20T04:22:52;50.17;;;27.60;;
50900;SDS011;36879;51.416;6.678;2022-11-20T04:25:19;45.35;;;28.05;;
50900;SDS011;36879;51.416;6.678;2022-11-20T04:27:44;46.85;;;27.65;;
50900;SDS011;36879;51.416;6.678;2022-11-20T04:30:11;40.78;;;24.58;;
50900;SDS011;36879;51.416;6.678;2022-11-20T04:32:37;41.03;;;24.33;;
50900;SDS011;36879;51.416;6.678;2022-11-20T04:35:03;42.60;;;24.33;;
50900;SDS011;36879;51.416;6.678;2022-11-20T04:37:29;39.75;;;22.77;;
50900;SDS011;36879;51.416;6.678;2022-11-20T04:39:55;42.25;;;24.67;;
50900;SDS011;36879;51.416;6.678;2022-11-20T04:42:21;43.53;;;25.55;;
50900;SDS011;36879;51.416;6.678;2022-11-20T04:44:53;44.92;;;24.60;;
50900;SDS011;36879;51.416;6.678;2022-11-20T04:47:19;44.30;;;24.88;;
50900;SDS011;36879;51.416;6.678;2022-11-20T04:49:46;41.15;;;24.67;;
50900;SDS011;36879;51.416;6.678;2022-11-20T04:52:12;42.58;;;25.70;;
50900;SDS011;36879;51.416;6.678;2022-11-20T04:54:38;39.72;;;23.80;;
50900;SDS011;36879;51.416;6.678;2022-11-20T04:57:04;39.55;;;25.27;;
50900;SDS011;36879;51.416;6.678;2022-11-20T04:59:30;40.63;;;25.40;;
50900;SDS011;36879;51.416;6.678;2022-11-20T05:01:56;45.58;;;25.02;;
50900;SDS011;36879;51.416;6.678;2022-11-20T05:04:22;43.10;;;26.27;;
50900;SDS011;36879;51.416;6.678;2022-11-20T05:06:49;44.17;;;26.90;;
50900;SDS011;36879;51.416;6.678;2022-11-20T05:09:15;43.67;;;24.52;;
50900;SDS011;36879;51.416;6.678;2022-11-20T05:11:41;35.22;;;23.40;;
50900;SDS011;36879;51.416;6.678;2022-11-20T05:14:07;43.88;;;24.90;;
50900;SDS011;36879;51.416;6.678;2022-11-20T05:16:33;38.20;;;22.73;;
50900;SDS011;36879;51.416;6.678;2022-11-20T05:19:00;45.28;;;24.77;;
50900;SDS011;36879;51.416;6.678;2022-11-20T05:21:26;35.40;;;24.30;;
50900;SDS011;36879;51.416;6.678;2022-11-20T05:23:52;38.65;;;24.50;;
50900;SDS011;36879;51.416;6.678;2022-11-20T05:26:21;35.78;;;23.60;;
50900;SDS011;36879;51.416;6.678;2022-11-20T05:28:48;41.70;;;24.67;;
50900;SDS011;36879;51.416;6.678;2022-11-20T05:31:15;44.20;;;25.88;;
50900;SDS011;36879;51.416;6.678;2022-11-20T05:33:41;38.25;;;23.63;;
50900;SDS011;36879;51.416;6.678;2022-11-20T05:36:08;37.28;;;23.40;;
50900;SDS011;36879;51.416;6.678;2022-11-20T05:38:34;34.38;;;21.30;;
50900;SDS011;36879;51.416;6.678;2022-11-20T05:41:08;38.25;;;21.92;;
50900;SDS011;36879;51.416;6.678;2022-11-20T05:43:34;35.42;;;19.92;;
50900;SDS011;36879;51.416;6.678;2022-11-20T05:46:01;34.53;;;19.25;;
50900;SDS011;36879;51.416;6.678;2022-11-20T05:48:27;37.40;;;21.15;;
50900;SDS011;36879;51.416;6.678;2022-11-20T05:50:53;33.95;;;20.58;;
50900;SDS011;36879;51.416;6.678;2022-11-20T05:53:19;36.00;;;20.00;;
50900;SDS011;36879;51.416;6.678;2022-11-20T05:55:45;30.65;;;19.23;;
50900;SDS011;36879;51.416;6.678;2022-11-20T05:58:10;34.22;;;19.55;;
50900;SDS011;36879;51.416;6.678;2022-11-20T06:00:36;31.25;;;19.30;;
50900;SDS011;36879;51.416;6.678;2022-11-20T06:03:02;33.63;;;19.17;;
50900;SDS011;36879;51.416;6.678;2022-11-20T06:05:28;32.40;;;18.73;;
50900;SDS011;36879;51.416;6.678;2022-11-20T06:07:54;33.28;;;18.55;;
50900;SDS011;36879;51.416;6.678;2022-11-20T06:10:20;33.72;;;19.40;;
50900;SDS011;36879;51.416;6.678;2022-11-20T06:12:46;35.00;;;19.35;;
50900;SDS011;36879;51.416;6.678;2022-11-20T06:15:12;36.30;;;20.88;;
50900;SDS011;36879;51.416;6.678;2022-11-20T06:17:38;33.83;;;19.02;;
50900;SDS011;36879;51.416;6.678;2022-11-20T06:20:04;37.10;;;21.05;;
50900;SDS011;36879;51.416;6.678;2022-11-20T06:22:31;29.48;;;18.35;;
50900;SDS011;36879;51.416;6.678;2022-11-20T06:24:57;37.50;;;19.40;;
50900;SDS011;36879;51.416;6.678;2022-11-20T06:27:23;35.08;;;20.80;;
50900;SDS011;36879;51.416;6.678;2022-11-20T06:29:49;33.97;;;20.17;;
50900;SDS011;36879;51.416;6.678;2022-11-20T06:32:15;33.40;;;19.88;;
50900;SDS011;36879;51.416;6.678;2022-11-20T06:34:41;36.38;;;20.95;;
50900;SDS011;36879;51.416;6.678;2022-11-20T06:37:07;35.13;;;20.33;;
50900;SDS011;36879;51.416;6.678;2022-11-20T06:39:33;34.20;;;20.02;;
50900;SDS011;36879;51.416;6.678;2022-11-20T06:41:59;32.10;;;20.83;;
50900;SDS011;36879;51.416;6.678;2022-11-20T06:44:25;37.88;;;20.77;;
50900;SDS011;36879;51.416;6.678;2022-11-20T06:46:51;41.30;;;21.20;;
50900;SDS011;36879;51.416;6.678;2022-11-20T06:49:17;36.67;;;21.35;;
50900;SDS011;36879;51.416;6.678;2022-11-20T06:51:43;35.58;;;20.33;;
50900;SDS011;36879;51.416;6.678;2022-11-20T06:54:09;40.40;;;21.67;;
50900;SDS011;36879;51.416;6.678;2022-11-20T06:56:35;39.83;;;20.63;;
50900;SDS011;36879;51.416;6.678;2022-11-20T06:59:03;35.78;;;21.08;;
50900;SDS011;36879;51.416;6.678;2022-11-20T07:01:30;38.00;;;21.95;;
50900;SDS011;36879;51.416;6.678;2022-11-20T07:03:56;32.97;;;20.60;;
50900;SDS011;36879;51.416;6.678;2022-11-20T07:06:22;36.10;;;20.58;;
50900;SDS011;36879;51.416;6.678;2022-11-20T07:08:50;39.72;;;21.23;;
50900;SDS011;36879;51.416;6.678;2022-11-20T07:11:17;34.03;;;20.58;;
50900;SDS011;36879;51.416;6.678;2022-11-20T07:13:43;35.53;;;21.15;;
50900;SDS011;36879;51.416;6.678;2022-11-20T07:16:09;34.90;;;19.98;;
50900;SDS011;36879;51.416;6.678;2022-11-20T07:18:35;34.88;;;20.33;;
50900;SDS011;36879;51.416;6.678;2022-11-20T07:21:02;35.15;;;20.55;;
50900;SDS011;36879;51.416;6.678;2022-11-20T07:23:28;31.20;;;19.73;;
50900;SDS011;36879;51.416;6.678;2022-11-20T07:25:54;35.08;;;21.20;;
50900;SDS011;36879;51.416;6.678;2022-11-20T07:28:20;34.53;;;19.92;;
50900;SDS011;36879;51.416;6.678;2022-11-20T07:30:52;36.30;;;20.83;;
50900;SDS011;36879;51.416;6.678;2022-11-20T07:33:19;34.78;;;20.17;;
50900;SDS011;36879;51.416;6.678;2022-11-20T07:35:45;35.83;;;19.27;;
50900;SDS011;36879;51.416;6.678;2022-11-20T07:38:11;31.25;;;18.73;;
50900;SDS011;36879;51.416;6.678;2022-11-20T07:40:37;33.60;;;18.42;;
50900;SDS011;36879;51.416;6.678;2022-11-20T07:43:03;34.88;;;20.08;;
50900;SDS011;36879;51.416;6.678;2022-11-20T07:45:29;35.50;;;20.17;;
50900;SDS011;36879;51.416;6.678;2022-11-20T07:47:55;37.45;;;21.05;;
50900;SDS011;36879;51.416;6.678;2022-11-20T07:50:21;36.95;;;20.27;;
50900;SDS011;36879;51.416;6.678;2022-11-20T07:52:47;38.03;;;19.90;;
50900;SDS011;36879;51.416;6.678;2022-11-20T07:55:13;39.90;;;21.65;;
50900;SDS011;36879;51.416;6.678;2022-11-20T07:57:39;37.17;;;21.85;;
50900;SDS011;36879;51.416;6.678;2022-11-20T08:00:06;36.10;;;20.58;;
50900;SDS011;36879;51.416;6.678;2022-11-20T08:02:38;33.50;;;20.30;;
50900;SDS011;36879;51.416;6.678;2022-11-20T08:05:04;33.22;;;20.58;;
50900;SDS011;36879;51.416;6.678;2022-11-20T08:07:35;35.20;;;19.83;;
50900;SDS011;36879;51.416;6.678;2022-11-20T08:10:01;37.85;;;20.38;;
50900;SDS011;36879;51.416;6.678;2022-11-20T08:12:27;33.05;;;20.02;;
50900;SDS011;36879;51.416;6.678;2022-11-20T08:15:12;31.98;;;18.83;;
50900;SDS011;36879;51.416;6.678;2022-11-20T08:17:38;30.35;;;18.45;;
50900;SDS011;36879;51.416;6.678;2022-11-20T08:20:04;36.50;;;16.73;;
50900;SDS011;36879;51.416;6.678;2022-11-20T08:22:30;31.75;;;18.13;;
50900;SDS011;36879;51.416;6.678;2022-11-20T08:24:56;29.42;;;17.90;;
50900;SDS011;36879;51.416;6.678;2022-11-20T08:27:22;31.48;;;18.30;;
50900;SDS011;36879;51.416;6.678;2022-11-20T08:29:48;31.20;;;17.15;;
50900;SDS011;36879;51.416;6.678;2022-11-20T08:32:14;27.17;;;17.05;;
50900;SDS011;36879;51.416;6.678;2022-11-20T08:34:40;27.33;;;18.02;;
50900;SDS011;36879;51.416;6.678;2022-11-20T08:37:06;31.23;;;15.88;;
50900;SDS011;36879;51.416;6.678;2022-11-20T08:39:32;28.88;;;16.38;;
50900;SDS011;36879;51.416;6.678;2022-11-20T08:41:58;27.35;;;15.90;;
50900;SDS011;36879;51.416;6.678;2022-11-20T08:44:24;26.80;;;16.25;;
50900;SDS011;36879;51.416;6.678;2022-11-20T08:46:50;27.42;;;14.48;;
50900;SDS011;36879;51.416;6.678;2022-11-20T08:49:16;25.92;;;16.52;;
50900;SDS011;36879;51.416;6.678;2022-11-20T08:51:43;26.80;;;14.05;;
50900;SDS011;36879;51.416;6.678;2022-11-20T08:54:09;27.20;;;16.80;;
50900;SDS011;36879;51.416;6.678;2022-11-20T08:56:35;30.75;;;15.73;;
50900;SDS011;36879;51.416;6.678;2022-11-20T08:59:01;31.70;;;17.55;;
50900;SDS011;36879;51.416;6.678;2022-11-20T09:01:28;25.98;;;15.65;;
50900;SDS011;36879;51.416;6.678;2022-11-20T09:03:57;30.13;;;17.50;;
50900;SDS011;36879;51.416;6.678;2022-11-20T09:06:24;31.75;;;18.55;;
50900;SDS011;36879;51.416;6.678;2022-11-20T09:08:53;32.40;;;18.33;;
50900;SDS011;36879;51.416;6.678;2022-11-20T09:11:19;28.95;;;16.20;;
50900;SDS011;36879;51.416;6.678;2022-11-20T09:13:45;25.65;;;16.83;;
50900;SDS011;36879;51.416;6.678;2022-11-20T09:16:11;27.92;;;15.60;;
50900;SDS011;36879;51.416;6.678;2022-11-20T09:18:37;23.40;;;14.88;;
50900;SDS011;36879;51.416;6.678;2022-11-20T09:21:10;26.90;;;14.77;;
50900;SDS011;36879;51.416;6.678;2022-11-20T09:23:37;25.42;;;13.55;;
50900;SDS011;36879;51.416;6.678;2022-11-20T09:26:05;25.45;;;13.73;;
50900;SDS011;36879;51.416;6.678;2022-11-20T09:28:33;23.75;;;14.18;;
50900;SDS011;36879;51.416;6.678;2022-11-20T09:30:59;24.60;;;14.50;;
50900;SDS011;36879;51.416;6.678;2022-11-20T09:33:25;24.58;;;13.93;;
50900;SDS011;36879;51.416;6.678;2022-11-20T09:35:51;26.52;;;14.23;;
50900;SDS011;36879;51.416;6.678;2022-11-20T09:38:17;24.92;;;15.73;;
50900;SDS011;36879;51.416;6.678;2022-11-20T09:40:45;27.48;;;15.32;;
50900;SDS011;36879;51.416;6.678;2022-11-20T09:43:20;27.80;;;15.27;;
50900;SDS011;36879;51.416;6.678;2022-11-20T09:56:07;23.83;;;14.05;;
50900;SDS011;36879;51.416;6.678;2022-11-20T10:01:10;24.52;;;13.98;;
50900;SDS011;36879;51.416;6.678;2022-11-20T10:03:49;23.77;;;14.65;;
50900;SDS011;36879;51.416;6.678;2022-11-20T10:06:17;26.45;;;14.63;;
50900;SDS011;36879;51.416;6.678;2022-11-20T10:11:51;27.58;;;15.40;;
50900;SDS011;36879;51.416;6.678;2022-11-20T10:14:28;24.10;;;14.02;;
50900;SDS011;36879;51.416;6.678;2022-11-20T10:17:18;27.75;;;16.30;;
50900;SDS011;36879;51.416;6.678;2022-11-20T10:19:58;25.77;;;17.40;;
50900;SDS011;36879;51.416;6.678;2022-11-20T10:25:26;27.98;;;14.98;;
50900;SDS011;36879;51.416;6.678;2022-11-20T10:30:26;26.42;;;14.38;;
50900;SDS011;36879;51.416;6.678;2022-11-20T10:32:56;26.92;;;14.77;;
50900;SDS011;36879;51.416;6.678;2022-11-20T10:35:26;33.08;;;16.45;;
50900;SDS011;36879;51.416;6.678;2022-11-20T10:37:58;30.88;;;15.30;;
50900;SDS011;36879;51.416;6.678;2022-11-20T10:40:34;26.17;;;15.60;;
50900;SDS011;36879;51.416;6.678;2022-11-20T10:48:24;28.95;;;14.32;;
50900;SDS011;36879;51.416;6.678;2022-11-20T10:50:55;23.52;;;13.68;;
50900;SDS011;36879;51.416;6.678;2022-11-20T10:53:34;26.90;;;14.57;;
50900;SDS011;36879;51.416;6.678;2022-11-20T11:01:39;29.10;;;15.43;;
50900;SDS011;36879;51.416;6.678;2022-11-20T11:04:07;24.73;;;13.98;;
50900;SDS011;36879;51.416;6.678;2022-11-20T11:06:42;25.75;;;14.77;;
50900;SDS011;36879;51.416;6.678;2022-11-20T11:09:32;29.02;;;13.35;;
50900;SDS011;36879;51.416;6.678;2022-11-20T11:11:55;24.85;;;14.25;;
50900;SDS011;36879;51.416;6.678;2022-11-20T11:14:22;27.02;;;13.00;;
50900;SDS011;36879;51.416;6.678;2022-11-20T11:16:55;27.08;;;13.98;;
50900;SDS011;36879;51.416;6.678;2022-11-20T11:19:25;25.17;;;14.35;;
50900;SDS011;36879;51.416;6.678;2022-11-20T11:21:54;32.10;;;15.20;;
50900;SDS011;36879;51.416;6.678;2022-11-20T11:24:28;25.77;;;14.45;;
50900;SDS011;36879;51.416;6.678;2022-11-20T11:26:58;25.90;;;13.88;;
50900;SDS011;36879;51.416;6.678;2022-11-20T11:29:25;26.13;;;14.82;;
50900;SDS011;36879;51.416;6.678;2022-11-20T11:32:04;30.85;;;16.40;;
50900;SDS011;36879;51.416;6.678;2022-11-20T11:34:30;28.17;;;15.70;;
50900;SDS011;36879;51.416;6.678;2022-11-20T11:36:58;26.50;;;14.95;;
50900;SDS011;36879;51.416;6.678;2022-11-20T11:39:25;30.60;;;14.57;;
50900;SDS011;36879;51.416;6.678;2022-11-20T11:41:51;26.02;;;13.82;;
50900;SDS011;36879;51.416;6.678;2022-11-20T11:44:23;25.73;;;13.45;;
50900;SDS011;36879;51.416;6.678;2022-11-20T11:47:43;23.38;;;13.70;;
50900;SDS011;36879;51.416;6.678;2022-11-20T11:50:07;29.48;;;13.85;;
50900;SDS011;36879;51.416;6.678;2022-11-20T11:55:25;23.25;;;13.40;;
50900;SDS011;36879;51.416;6.678;2022-11-20T11:57:54;31.65;;;15.80;;
50900;SDS011;36879;51.416;6.678;2022-11-20T12:00:21;29.35;;;14.32;;
50900;SDS011;36879;51.416;6.678;2022-11-20T12:07:45;29.10;;;14.15;;
50900;SDS011;36879;51.416;6.678;2022-11-20T12:10:17;28.88;;;14.00;;
50900;SDS011;36879;51.416;6.678;2022-11-20T12:12:45;25.83;;;12.60;;
50900;SDS011;36879;51.416;6.678;2022-11-20T12:15:13;24.50;;;13.93;;
50900;SDS011;36879;51.416;6.678;2022-11-20T12:17:41;25.42;;;12.52;;
50900;SDS011;36879;51.416;6.678;2022-11-20T12:20:16;19.90;;;11.32;;
50900;SDS011;36879;51.416;6.678;2022-11-20T12:30:16;24.83;;;11.60;;
50900;SDS011;36879;51.416;6.678;2022-11-20T12:37:59;23.75;;;13.93;;
50900;SDS011;36879;51.416;6.678;2022-11-20T12:40:40;25.20;;;14.10;;
50900;SDS011;36879;51.416;6.678;2022-11-20T12:43:17;23.63;;;12.65;;
50900;SDS011;36879;51.416;6.678;2022-11-20T12:46:06;24.90;;;14.35;;
50900;SDS011;36879;51.416;6.678;2022-11-20T12:48:41;24.02;;;13.48;;
50900;SDS011;36879;51.416;6.678;2022-11-20T12:53:43;30.02;;;15.52;;
50900;SDS011;36879;51.416;6.678;2022-11-20T12:58:45;28.58;;;15.30;;
50900;SDS011;36879;51.416;6.678;2022-11-20T13:04:07;30.83;;;18.17;;
50900;SDS011;36879;51.416;6.678;2022-11-20T13:06:34;29.70;;;15.80;;
50900;SDS011;36879;51.416;6.678;2022-11-20T13:09:00;24.20;;;13.75;;
50900;SDS011;36879;51.416;6.678;2022-11-20T13:11:32;29.10;;;16.67;;
50900;SDS011;36879;51.416;6.678;2022-11-20T13:14:03;30.50;;;15.90;;
50900;SDS011;36879;51.416;6.678;2022-11-20T13:19:09;27.33;;;14.45;;
50900;SDS011;36879;51.416;6.678;2022-11-20T13:21:38;28.58;;;16.75;;
50900;SDS011;36879;51.416;6.678;2022-11-20T13:24:07;23.73;;;14.93;;
50900;SDS011;36879;51.416;6.678;2022-11-20T13:26:59;30.42;;;15.60;;
50900;SDS011;36879;51.416;6.678;2022-11-20T13:29:25;29.83;;;16.55;;
50900;SDS011;36879;51.416;6.678;2022-11-20T13:32:00;32.33;;;18.15;;
50900;SDS011;36879;51.416;6.678;2022-11-20T13:34:27;37.33;;;18.95;;
50900;SDS011;36879;51.416;6.678;2022-11-20T13:36:54;34.95;;;20.30;;
50900;SDS011;36879;51.416;6.678;2022-11-20T13:39:24;33.03;;;19.08;;
50900;SDS011;36879;51.416;6.678;2022-11-20T13:41:55;31.65;;;17.60;;
50900;SDS011;36879;51.416;6.678;2022-11-20T13:44:23;29.83;;;16.27;;
50900;SDS011;36879;51.416;6.678;2022-11-20T13:46:50;29.58;;;17.00;;
50900;SDS011;36879;51.416;6.678;2022-11-20T13:49:25;36.88;;;18.58;;
50900;SDS011;36879;51.416;6.678;2022-11-20T13:51:56;33.28;;;19.48;;
50900;SDS011;36879;51.416;6.678;2022-11-20T13:54:45;28.35;;;17.23;;
50900;SDS011;36879;51.416;6.678;2022-11-20T14:00:02;35.83;;;20.88;;
50900;SDS011;36879;51.416;6.678;2022-11-20T14:02:29;36.35;;;20.92;;
50900;SDS011;36879;51.416;6.678;2022-11-20T14:04:56;44.90;;;24.25;;
50900;SDS011;36879;51.416;6.678;2022-11-20T14:07:24;33.65;;;21.73;;
50900;SDS011;36879;51.416;6.678;2022-11-20T14:09:52;48.28;;;24.13;;
50900;SDS011;36879;51.416;6.678;2022-11-20T14:12:19;41.08;;;22.25;;
50900;SDS011;36879;51.416;6.678;2022-11-20T14:14:49;40.95;;;21.55;;
50900;SDS011;36879;51.416;6.678;2022-11-20T14:17:20;38.38;;;19.20;;
50900;SDS011;36879;51.416;6.678;2022-11-20T14:19:46;33.85;;;19.25;;
50900;SDS011;36879;51.416;6.678;2022-11-20T14:24:43;40.47;;;20.58;;
50900;SDS011;36879;51.416;6.678;2022-11-20T14:27:13;39.72;;;22.42;;
50900;SDS011;36879;51.416;6.678;2022-11-20T14:29:39;37.92;;;19.67;;
50900;SDS011;36879;51.416;6.678;2022-11-20T14:32:07;38.22;;;22.42;;
50900;SDS011;36879;51.416;6.678;2022-11-20T14:34:35;43.03;;;24.88;;
50900;SDS011;36879;51.416;6.678;2022-11-20T14:37:06;40.13;;;21.10;;
50900;SDS011;36879;51.416;6.678;2022-11-20T14:39:37;42.88;;;22.13;;
50900;SDS011;36879;51.416;6.678;2022-11-20T14:42:13;37.05;;;20.90;;
50900;SDS011;36879;51.416;6.678;2022-11-20T14:44:40;43.22;;;20.73;;
50900;SDS011;36879;51.416;6.678;2022-11-20T14:47:08;39.30;;;21.65;;
50900;SDS011;36879;51.416;6.678;2022-11-20T14:49:35;42.08;;;23.30;;
50900;SDS011;36879;51.416;6.678;2022-11-20T14:52:02;37.88;;;20.52;;
50900;SDS011;36879;51.416;6.678;2022-11-20T14:54:29;41.50;;;21.10;;
50900;SDS011;36879;51.416;6.678;2022-11-20T14:57:02;44.97;;;22.95;;
50900;SDS011;36879;51.416;6.678;2022-11-20T14:59:29;40.60;;;21.48;;
50900;SDS011;36879;51.416;6.678;2022-11-20T15:01:56;51.47;;;25.08;;
50900;SDS011;36879;51.416;6.678;2022-11-20T15:04:23;43.50;;;23.33;;
50900;SDS011;36879;51.416;6.678;2022-11-20T15:06:53;48.63;;;23.45;;
50900;SDS011;36879;51.416;6.678;2022-11-20T15:09:20;51.40;;;24.92;;
50900;SDS011;36879;51.416;6.678;2022-11-20T15:11:54;42.50;;;21.15;;
50900;SDS011;36879;51.416;6.678;2022-11-20T15:14:21;43.53;;;23.05;;
50900;SDS011;36879;51.416;6.678;2022-11-20T15:16:47;41.47;;;22.80;;
50900;SDS011;36879;51.416;6.678;2022-11-20T15:19:16;50.63;;;22.83;;
50900;SDS011;36879;51.416;6.678;2022-11-20T15:21:43;44.38;;;23.27;;
50900;SDS011;36879;51.416;6.678;2022-11-20T15:24:09;40.85;;;22.02;;
50900;SDS011;36879;51.416;6.678;2022-11-20T15:26:35;44.78;;;22.63;;
50900;SDS011;36879;51.416;6.678;2022-11-20T15:29:04;50.90;;;22.75;;
50900;SDS011;36879;51.416;6.678;2022-11-20T15:31:30;51.42;;;25.55;;
50900;SDS011;36879;51.416;6.678;2022-11-20T15:33:56;46.95;;;24.30;;
50900;SDS011;36879;51.416;6.678;2022-11-20T15:36:22;44.47;;;24.35;;
50900;SDS011;36879;51.416;6.678;2022-11-20T15:38:48;54.78;;;24.63;;
50900;SDS011;36879;51.416;6.678;2022-11-20T15:41:14;47.22;;;25.27;;